sensor_id;sensor_type;location;lat;lon;timestamp;P1;durP1;ratioP1;P2;durP2;ratioP2
17991;SDS011;9121;50.926;5.340;2024-03-08T00:00:34;36.53;;;18.23;;
17991;SDS011;9121;50.926;5.340;2024-03-08T00:03:04;37.67;;;17.77;;
17991;SDS011;9121;50.926;5.340;2024-03-08T00:05:31;35.67;;;17.80;;
17991;SDS011;9121;50.926;5.340;2024-03-08T00:07:58;34.63;;;18.27;;
17991;SDS011;9121;50.926;5.340;2024-03-08T00:10:25;38.77;;;18.57;;
17991;SDS011;9121;50.926;5.340;2024-03-08T00:12:53;36.20;;;17.57;;
17991;SDS011;9121;50.926;5.340;2024-03-08T00:15:21;35.13;;;18.00;;
17991;SDS011;9121;50.926;5.340;2024-03-08T00:17:48;32.50;;;17.83;;
17991;SDS011;9121;50.926;5.340;2024-03-08T00:20:16;38.10;;;17.33;;
17991;SDS011;9121;50.926;5.340;2024-03-08T00:22:44;33.93;;;17.43;;
17991;SDS011;9121;50.926;5.340;2024-03-08T00:25:11;33.80;;;18.60;;
17991;SDS011;9121;50.926;5.340;2024-03-08T00:27:38;36.43;;;18.20;;
17991;SDS011;9121;50.926;5.340;2024-03-08T00:30:06;33.80;;;18.73;;
17991;SDS011;9121;50.926;5.340;2024-03-08T00:32:34;37.23;;;18.67;;
17991;SDS011;9121;50.926;5.340;2024-03-08T00:35:02;37.60;;;18.67;;
17991;SDS011;9121;50.926;5.340;2024-03-08T00:37:30;32.47;;;19.03;;
17991;SDS011;9121;50.926;5.340;2024-03-08T00:39:59;35.37;;;18.03;;
17991;SDS011;9121;50.926;5.340;2024-03-08T00:42:27;37.17;;;17.90;;
17991;SDS011;9121;50.926;5.340;2024-03-08T00:44:54;36.77;;;19.17;;
17991;SDS011;9121;50.926;5.340;2024-03-08T00:47:21;37.03;;;18.33;;
17991;SDS011;9121;50.926;5.340;2024-03-08T00:49:48;31.67;;;18.43;;
17991;SDS011;9121;50.926;5.340;2024-03-08T00:52:15;35.23;;;19.00;;
17991;SDS011;9121;50.926;5.340;2024-03-08T00:54:44;37.33;;;20.03;;
17991;SDS011;9121;50.926;5.340;2024-03-08T00:57:11;37.00;;;19.73;;
17991;SDS011;9121;50.926;5.340;2024-03-08T00:59:39;36.23;;;20.53;;
17991;SDS011;9121;50.926;5.340;2024-03-08T01:02:06;36.80;;;18.53;;
17991;SDS011;9121;50.926;5.340;2024-03-08T01:04:34;36.43;;;19.60;;
17991;SDS011;9121;50.926;5.340;2024-03-08T01:07:01;36.27;;;19.57;;
17991;SDS011;9121;50.926;5.340;2024-03-08T01:09:29;40.43;;;20.17;;
17991;SDS011;9121;50.926;5.340;2024-03-08T01:11:57;34.43;;;20.17;;
17991;SDS011;9121;50.926;5.340;2024-03-08T01:14:24;41.27;;;20.43;;
17991;SDS011;9121;50.926;5.340;2024-03-08T01:16:51;37.00;;;19.47;;
17991;SDS011;9121;50.926;5.340;2024-03-08T01:19:20;40.80;;;20.20;;
17991;SDS011;9121;50.926;5.340;2024-03-08T01:21:47;36.17;;;19.73;;
17991;SDS011;9121;50.926;5.340;2024-03-08T01:24:14;38.87;;;21.53;;
17991;SDS011;9121;50.926;5.340;2024-03-08T01:26:41;36.87;;;20.27;;
17991;SDS011;9121;50.926;5.340;2024-03-08T01:29:09;37.43;;;20.23;;
17991;SDS011;9121;50.926;5.340;2024-03-08T01:31:36;38.37;;;20.90;;
17991;SDS011;9121;50.926;5.340;2024-03-08T01:34:03;36.87;;;21.37;;
17991;SDS011;9121;50.926;5.340;2024-03-08T01:36:30;41.40;;;21.23;;
17991;SDS011;9121;50.926;5.340;2024-03-08T01:38:57;38.07;;;19.97;;
17991;SDS011;9121;50.926;5.340;2024-03-08T01:41:24;42.13;;;21.43;;
17991;SDS011;9121;50.926;5.340;2024-03-08T01:43:54;41.80;;;21.47;;
17991;SDS011;9121;50.926;5.340;2024-03-08T01:46:23;39.43;;;21.60;;
17991;SDS011;9121;50.926;5.340;2024-03-08T01:48:53;39.20;;;21.80;;
17991;SDS011;9121;50.926;5.340;2024-03-08T01:51:21;38.37;;;20.37;;
17991;SDS011;9121;50.926;5.340;2024-03-08T01:53:48;40.17;;;21.47;;
17991;SDS011;9121;50.926;5.340;2024-03-08T01:56:15;44.20;;;22.70;;
17991;SDS011;9121;50.926;5.340;2024-03-08T01:58:43;38.13;;;22.10;;
17991;SDS011;9121;50.926;5.340;2024-03-08T02:01:12;46.47;;;21.30;;
17991;SDS011;9121;50.926;5.340;2024-03-08T02:03:41;40.10;;;22.00;;
17991;SDS011;9121;50.926;5.340;2024-03-08T02:06:09;43.07;;;22.67;;
17991;SDS011;9121;50.926;5.340;2024-03-08T02:08:38;38.23;;;20.97;;
17991;SDS011;9121;50.926;5.340;2024-03-08T02:11:05;41.90;;;22.13;;
17991;SDS011;9121;50.926;5.340;2024-03-08T02:13:32;45.07;;;23.00;;
17991;SDS011;9121;50.926;5.340;2024-03-08T02:15:59;42.13;;;23.53;;
17991;SDS011;9121;50.926;5.340;2024-03-08T02:18:27;44.23;;;22.80;;
17991;SDS011;9121;50.926;5.340;2024-03-08T02:20:58;42.20;;;24.00;;
17991;SDS011;9121;50.926;5.340;2024-03-08T02:23:25;43.17;;;22.53;;
17991;SDS011;9121;50.926;5.340;2024-03-08T02:25:53;42.37;;;22.00;;
17991;SDS011;9121;50.926;5.340;2024-03-08T02:28:21;43.67;;;22.67;;
17991;SDS011;9121;50.926;5.340;2024-03-08T02:30:50;39.57;;;21.73;;
17991;SDS011;9121;50.926;5.340;2024-03-08T02:33:20;46.60;;;22.90;;
17991;SDS011;9121;50.926;5.340;2024-03-08T02:35:47;39.30;;;20.60;;
17991;SDS011;9121;50.926;5.340;2024-03-08T02:38:17;41.93;;;21.57;;
17991;SDS011;9121;50.926;5.340;2024-03-08T02:40:46;39.73;;;21.80;;
17991;SDS011;9121;50.926;5.340;2024-03-08T02:43:14;38.53;;;20.37;;
17991;SDS011;9121;50.926;5.340;2024-03-08T02:45:43;40.57;;;20.80;;
17991;SDS011;9121;50.926;5.340;2024-03-08T02:48:10;44.27;;;21.97;;
17991;SDS011;9121;50.926;5.340;2024-03-08T02:50:38;41.87;;;21.17;;
17991;SDS011;9121;50.926;5.340;2024-03-08T02:53:07;42.23;;;21.03;;
17991;SDS011;9121;50.926;5.340;2024-03-08T02:55:36;41.27;;;21.67;;
17991;SDS011;9121;50.926;5.340;2024-03-08T02:58:04;40.07;;;21.23;;
17991;SDS011;9121;50.926;5.340;2024-03-08T03:00:33;41.53;;;21.10;;
17991;SDS011;9121;50.926;5.340;2024-03-08T03:03:00;40.53;;;21.40;;
17991;SDS011;9121;50.926;5.340;2024-03-08T03:05:28;37.73;;;20.30;;
17991;SDS011;9121;50.926;5.340;2024-03-08T03:07:56;41.77;;;21.67;;
17991;SDS011;9121;50.926;5.340;2024-03-08T03:10:23;37.17;;;21.27;;
17991;SDS011;9121;50.926;5.340;2024-03-08T03:12:52;44.33;;;22.37;;
17991;SDS011;9121;50.926;5.340;2024-03-08T03:15:19;45.30;;;21.60;;
17991;SDS011;9121;50.926;5.340;2024-03-08T03:17:47;43.70;;;23.53;;
17991;SDS011;9121;50.926;5.340;2024-03-08T03:20:16;46.77;;;21.73;;
17991;SDS011;9121;50.926;5.340;2024-03-08T03:22:48;43.00;;;21.97;;
17991;SDS011;9121;50.926;5.340;2024-03-08T03:25:17;45.20;;;21.37;;
17991;SDS011;9121;50.926;5.340;2024-03-08T03:27:51;44.03;;;21.60;;
17991;SDS011;9121;50.926;5.340;2024-03-08T03:30:21;40.80;;;22.83;;
17991;SDS011;9121;50.926;5.340;2024-03-08T03:32:51;44.47;;;22.03;;
17991;SDS011;9121;50.926;5.340;2024-03-08T03:35:19;40.00;;;20.63;;
17991;SDS011;9121;50.926;5.340;2024-03-08T03:37:47;41.33;;;21.13;;
17991;SDS011;9121;50.926;5.340;2024-03-08T03:40:26;40.60;;;22.30;;
17991;SDS011;9121;50.926;5.340;2024-03-08T03:42:55;42.67;;;22.87;;
17991;SDS011;9121;50.926;5.340;2024-03-08T03:45:22;42.60;;;21.87;;
17991;SDS011;9121;50.926;5.340;2024-03-08T03:47:49;45.30;;;22.80;;
17991;SDS011;9121;50.926;5.340;2024-03-08T03:50:17;49.87;;;22.20;;
17991;SDS011;9121;50.926;5.340;2024-03-08T03:52:45;44.20;;;22.27;;
17991;SDS011;9121;50.926;5.340;2024-03-08T03:55:12;40.67;;;22.27;;
17991;SDS011;9121;50.926;5.340;2024-03-08T03:57:39;42.70;;;22.13;;
17991;SDS011;9121;50.926;5.340;2024-03-08T04:00:08;42.03;;;21.73;;
17991;SDS011;9121;50.926;5.340;2024-03-08T04:02:36;45.00;;;23.13;;
17991;SDS011;9121;50.926;5.340;2024-03-08T04:05:04;48.43;;;21.93;;
17991;SDS011;9121;50.926;5.340;2024-03-08T04:07:32;46.10;;;22.90;;
17991;SDS011;9121;50.926;5.340;2024-03-08T04:10:00;50.27;;;22.73;;
17991;SDS011;9121;50.926;5.340;2024-03-08T04:12:27;44.53;;;22.33;;
17991;SDS011;9121;50.926;5.340;2024-03-08T04:14:56;43.00;;;21.97;;
17991;SDS011;9121;50.926;5.340;2024-03-08T04:17:25;46.03;;;22.57;;
17991;SDS011;9121;50.926;5.340;2024-03-08T04:19:52;48.10;;;22.70;;
17991;SDS011;9121;50.926;5.340;2024-03-08T04:22:19;42.13;;;22.17;;
17991;SDS011;9121;50.926;5.340;2024-03-08T04:24:46;44.90;;;22.27;;
17991;SDS011;9121;50.926;5.340;2024-03-08T04:27:13;46.23;;;22.03;;
17991;SDS011;9121;50.926;5.340;2024-03-08T04:29:41;40.23;;;22.00;;
17991;SDS011;9121;50.926;5.340;2024-03-08T04:32:08;44.40;;;22.63;;
17991;SDS011;9121;50.926;5.340;2024-03-08T04:34:37;41.97;;;22.00;;
17991;SDS011;9121;50.926;5.340;2024-03-08T04:37:04;41.97;;;22.20;;
17991;SDS011;9121;50.926;5.340;2024-03-08T04:39:31;45.50;;;23.23;;
17991;SDS011;9121;50.926;5.340;2024-03-08T04:41:59;45.17;;;22.03;;
17991;SDS011;9121;50.926;5.340;2024-03-08T04:44:29;50.17;;;24.30;;
17991;SDS011;9121;50.926;5.340;2024-03-08T04:46:56;43.33;;;22.43;;
17991;SDS011;9121;50.926;5.340;2024-03-08T04:49:25;49.03;;;22.67;;
17991;SDS011;9121;50.926;5.340;2024-03-08T04:51:54;44.57;;;21.80;;
17991;SDS011;9121;50.926;5.340;2024-03-08T04:54:21;45.13;;;21.50;;
17991;SDS011;9121;50.926;5.340;2024-03-08T04:56:49;46.87;;;23.03;;
17991;SDS011;9121;50.926;5.340;2024-03-08T04:59:16;44.40;;;21.10;;
17991;SDS011;9121;50.926;5.340;2024-03-08T05:01:44;44.13;;;22.23;;
17991;SDS011;9121;50.926;5.340;2024-03-08T05:04:12;50.50;;;22.50;;
17991;SDS011;9121;50.926;5.340;2024-03-08T05:06:40;44.97;;;21.77;;
17991;SDS011;9121;50.926;5.340;2024-03-08T05:09:09;49.00;;;22.23;;
17991;SDS011;9121;50.926;5.340;2024-03-08T05:11:40;41.47;;;21.93;;
17991;SDS011;9121;50.926;5.340;2024-03-08T05:14:08;45.80;;;22.33;;
17991;SDS011;9121;50.926;5.340;2024-03-08T05:16:36;39.00;;;21.40;;
17991;SDS011;9121;50.926;5.340;2024-03-08T05:19:03;47.60;;;21.87;;
17991;SDS011;9121;50.926;5.340;2024-03-08T05:21:30;45.87;;;21.37;;
17991;SDS011;9121;50.926;5.340;2024-03-08T05:23:57;43.60;;;20.87;;
17991;SDS011;9121;50.926;5.340;2024-03-08T05:26:25;45.53;;;21.87;;
17991;SDS011;9121;50.926;5.340;2024-03-08T05:28:52;43.03;;;20.73;;
17991;SDS011;9121;50.926;5.340;2024-03-08T05:31:20;47.10;;;22.40;;
17991;SDS011;9121;50.926;5.340;2024-03-08T05:33:48;48.93;;;21.67;;
17991;SDS011;9121;50.926;5.340;2024-03-08T05:36:16;47.50;;;22.17;;
17991;SDS011;9121;50.926;5.340;2024-03-08T05:38:43;49.27;;;22.13;;
17991;SDS011;9121;50.926;5.340;2024-03-08T05:41:10;49.80;;;22.00;;
17991;SDS011;9121;50.926;5.340;2024-03-08T05:43:40;54.10;;;21.57;;
17991;SDS011;9121;50.926;5.340;2024-03-08T05:46:07;45.77;;;21.03;;
17991;SDS011;9121;50.926;5.340;2024-03-08T05:48:34;44.27;;;22.07;;
17991;SDS011;9121;50.926;5.340;2024-03-08T05:51:01;46.97;;;21.80;;
17991;SDS011;9121;50.926;5.340;2024-03-08T05:53:28;47.13;;;21.37;;
17991;SDS011;9121;50.926;5.340;2024-03-08T05:55:56;43.20;;;20.77;;
17991;SDS011;9121;50.926;5.340;2024-03-08T05:58:26;45.73;;;20.93;;
17991;SDS011;9121;50.926;5.340;2024-03-08T06:00:56;38.60;;;18.73;;
17991;SDS011;9121;50.926;5.340;2024-03-08T06:03:23;41.97;;;20.73;;
17991;SDS011;9121;50.926;5.340;2024-03-08T06:05:51;42.00;;;19.43;;
17991;SDS011;9121;50.926;5.340;2024-03-08T06:08:18;52.77;;;21.83;;
17991;SDS011;9121;50.926;5.340;2024-03-08T06:10:45;44.20;;;22.07;;
17991;SDS011;9121;50.926;5.340;2024-03-08T06:13:17;44.27;;;20.90;;
17991;SDS011;9121;50.926;5.340;2024-03-08T06:15:44;50.27;;;19.93;;
17991;SDS011;9121;50.926;5.340;2024-03-08T06:18:13;44.10;;;20.73;;
17991;SDS011;9121;50.926;5.340;2024-03-08T06:20:40;39.77;;;19.53;;
17991;SDS011;9121;50.926;5.340;2024-03-08T06:23:09;47.23;;;20.83;;
17991;SDS011;9121;50.926;5.340;2024-03-08T06:25:36;45.53;;;20.07;;
17991;SDS011;9121;50.926;5.340;2024-03-08T06:28:03;52.03;;;20.63;;
17991;SDS011;9121;50.926;5.340;2024-03-08T06:30:30;52.47;;;22.73;;
17991;SDS011;9121;50.926;5.340;2024-03-08T06:32:57;43.57;;;19.87;;
17991;SDS011;9121;50.926;5.340;2024-03-08T06:35:26;46.23;;;20.33;;
17991;SDS011;9121;50.926;5.340;2024-03-08T06:37:53;51.77;;;21.00;;
17991;SDS011;9121;50.926;5.340;2024-03-08T06:40:21;48.13;;;19.80;;
17991;SDS011;9121;50.926;5.340;2024-03-08T06:42:48;44.70;;;20.50;;
17991;SDS011;9121;50.926;5.340;2024-03-08T06:45:17;51.10;;;21.60;;
17991;SDS011;9121;50.926;5.340;2024-03-08T06:47:46;45.13;;;20.90;;
17991;SDS011;9121;50.926;5.340;2024-03-08T06:50:13;42.37;;;19.77;;
17991;SDS011;9121;50.926;5.340;2024-03-08T06:52:42;43.03;;;19.70;;
17991;SDS011;9121;50.926;5.340;2024-03-08T06:55:11;47.07;;;20.37;;
17991;SDS011;9121;50.926;5.340;2024-03-08T06:57:39;49.63;;;20.43;;
17991;SDS011;9121;50.926;5.340;2024-03-08T07:00:07;45.77;;;20.87;;
17991;SDS011;9121;50.926;5.340;2024-03-08T07:02:36;43.20;;;19.27;;
17991;SDS011;9121;50.926;5.340;2024-03-08T07:05:05;41.90;;;20.10;;
17991;SDS011;9121;50.926;5.340;2024-03-08T07:07:35;54.03;;;19.60;;
17991;SDS011;9121;50.926;5.340;2024-03-08T07:10:04;37.60;;;18.97;;
17991;SDS011;9121;50.926;5.340;2024-03-08T07:12:36;42.33;;;19.13;;
17991;SDS011;9121;50.926;5.340;2024-03-08T07:15:03;42.37;;;19.53;;
17991;SDS011;9121;50.926;5.340;2024-03-08T07:17:31;43.13;;;17.80;;
17991;SDS011;9121;50.926;5.340;2024-03-08T07:19:59;43.73;;;20.37;;
17991;SDS011;9121;50.926;5.340;2024-03-08T07:22:33;43.77;;;18.83;;
17991;SDS011;9121;50.926;5.340;2024-03-08T07:25:04;40.03;;;18.20;;
17991;SDS011;9121;50.926;5.340;2024-03-08T07:27:45;39.90;;;17.83;;
17991;SDS011;9121;50.926;5.340;2024-03-08T07:30:12;53.37;;;20.37;;
17991;SDS011;9121;50.926;5.340;2024-03-08T07:33:01;41.73;;;18.70;;
17991;SDS011;9121;50.926;5.340;2024-03-08T07:35:28;42.27;;;18.97;;
17991;SDS011;9121;50.926;5.340;2024-03-08T07:37:56;38.40;;;18.10;;
17991;SDS011;9121;50.926;5.340;2024-03-08T07:40:26;41.70;;;19.77;;
17991;SDS011;9121;50.926;5.340;2024-03-08T07:42:53;39.67;;;19.53;;
17991;SDS011;9121;50.926;5.340;2024-03-08T07:45:20;44.90;;;20.43;;
17991;SDS011;9121;50.926;5.340;2024-03-08T07:47:48;40.30;;;18.27;;
17991;SDS011;9121;50.926;5.340;2024-03-08T07:50:16;41.97;;;19.60;;
17991;SDS011;9121;50.926;5.340;2024-03-08T07:52:44;38.03;;;19.10;;
17991;SDS011;9121;50.926;5.340;2024-03-08T07:55:11;42.17;;;18.20;;
17991;SDS011;9121;50.926;5.340;2024-03-08T07:57:41;39.60;;;17.30;;
17991;SDS011;9121;50.926;5.340;2024-03-08T08:00:09;41.30;;;19.10;;
17991;SDS011;9121;50.926;5.340;2024-03-08T08:02:42;42.27;;;18.43;;
17991;SDS011;9121;50.926;5.340;2024-03-08T08:05:10;41.90;;;18.47;;
17991;SDS011;9121;50.926;5.340;2024-03-08T08:07:38;36.43;;;17.53;;
17991;SDS011;9121;50.926;5.340;2024-03-08T08:10:08;37.53;;;18.67;;
17991;SDS011;9121;50.926;5.340;2024-03-08T08:12:43;43.97;;;17.60;;
17991;SDS011;9121;50.926;5.340;2024-03-08T08:15:10;36.63;;;18.17;;
17991;SDS011;9121;50.926;5.340;2024-03-08T08:17:37;43.67;;;17.90;;
17991;SDS011;9121;50.926;5.340;2024-03-08T08:20:05;36.10;;;18.63;;
17991;SDS011;9121;50.926;5.340;2024-03-08T08:22:33;41.40;;;19.00;;
17991;SDS011;9121;50.926;5.340;2024-03-08T08:25:00;34.17;;;16.97;;
17991;SDS011;9121;50.926;5.340;2024-03-08T08:27:28;35.00;;;17.27;;
17991;SDS011;9121;50.926;5.340;2024-03-08T08:29:56;37.93;;;15.07;;
17991;SDS011;9121;50.926;5.340;2024-03-08T08:32:23;44.87;;;18.07;;
17991;SDS011;9121;50.926;5.340;2024-03-08T08:34:50;37.30;;;17.83;;
17991;SDS011;9121;50.926;5.340;2024-03-08T08:37:17;32.70;;;16.73;;
17991;SDS011;9121;50.926;5.340;2024-03-08T08:39:45;41.53;;;17.13;;
17991;SDS011;9121;50.926;5.340;2024-03-08T08:42:12;39.37;;;17.10;;
17991;SDS011;9121;50.926;5.340;2024-03-08T08:44:39;34.87;;;16.80;;
17991;SDS011;9121;50.926;5.340;2024-03-08T08:47:07;35.57;;;15.77;;
17991;SDS011;9121;50.926;5.340;2024-03-08T08:49:34;36.97;;;16.67;;
17991;SDS011;9121;50.926;5.340;2024-03-08T08:52:01;40.57;;;17.57;;
17991;SDS011;9121;50.926;5.340;2024-03-08T08:54:29;34.37;;;17.17;;
17991;SDS011;9121;50.926;5.340;2024-03-08T08:56:56;35.00;;;17.27;;
17991;SDS011;9121;50.926;5.340;2024-03-08T08:59:23;35.10;;;16.97;;
17991;SDS011;9121;50.926;5.340;2024-03-08T09:01:50;35.23;;;17.60;;
17991;SDS011;9121;50.926;5.340;2024-03-08T09:04:20;42.47;;;17.97;;
17991;SDS011;9121;50.926;5.340;2024-03-08T09:06:48;65.93;;;17.27;;
17991;SDS011;9121;50.926;5.340;2024-03-08T09:09:15;33.10;;;17.07;;
17991;SDS011;9121;50.926;5.340;2024-03-08T09:11:42;108.00;;;22.20;;
17991;SDS011;9121;50.926;5.340;2024-03-08T09:14:09;34.37;;;17.00;;
17991;SDS011;9121;50.926;5.340;2024-03-08T09:16:37;34.43;;;16.37;;
17991;SDS011;9121;50.926;5.340;2024-03-08T09:19:04;30.23;;;16.73;;
17991;SDS011;9121;50.926;5.340;2024-03-08T09:21:33;28.27;;;15.07;;
17991;SDS011;9121;50.926;5.340;2024-03-08T09:24:01;33.60;;;15.57;;
17991;SDS011;9121;50.926;5.340;2024-03-08T09:26:28;52.50;;;17.73;;
17991;SDS011;9121;50.926;5.340;2024-03-08T09:28:56;34.97;;;16.03;;
17991;SDS011;9121;50.926;5.340;2024-03-08T09:31:23;32.23;;;16.90;;
17991;SDS011;9121;50.926;5.340;2024-03-08T09:33:51;38.83;;;16.97;;
17991;SDS011;9121;50.926;5.340;2024-03-08T09:36:18;47.80;;;17.20;;
17991;SDS011;9121;50.926;5.340;2024-03-08T09:38:48;38.27;;;17.97;;
17991;SDS011;9121;50.926;5.340;2024-03-08T09:41:15;42.93;;;14.97;;
17991;SDS011;9121;50.926;5.340;2024-03-08T09:43:42;33.03;;;16.37;;
17991;SDS011;9121;50.926;5.340;2024-03-08T09:46:10;36.77;;;16.23;;
17991;SDS011;9121;50.926;5.340;2024-03-08T09:48:39;34.23;;;16.33;;
17991;SDS011;9121;50.926;5.340;2024-03-08T09:51:06;29.03;;;15.77;;
17991;SDS011;9121;50.926;5.340;2024-03-08T09:53:38;59.57;;;17.93;;
17991;SDS011;9121;50.926;5.340;2024-03-08T09:56:08;33.73;;;16.40;;
17991;SDS011;9121;50.926;5.340;2024-03-08T09:58:37;30.37;;;15.70;;
17991;SDS011;9121;50.926;5.340;2024-03-08T10:01:28;32.03;;;16.47;;
17991;SDS011;9121;50.926;5.340;2024-03-08T10:03:56;40.77;;;18.77;;
17991;SDS011;9121;50.926;5.340;2024-03-08T10:06:24;27.23;;;14.87;;
17991;SDS011;9121;50.926;5.340;2024-03-08T10:08:51;34.23;;;16.73;;
17991;SDS011;9121;50.926;5.340;2024-03-08T10:11:19;32.97;;;15.23;;
17991;SDS011;9121;50.926;5.340;2024-03-08T10:13:47;29.33;;;14.43;;
17991;SDS011;9121;50.926;5.340;2024-03-08T10:16:15;32.70;;;16.23;;
17991;SDS011;9121;50.926;5.340;2024-03-08T10:18:42;27.93;;;15.20;;
17991;SDS011;9121;50.926;5.340;2024-03-08T10:21:11;26.77;;;14.23;;
17991;SDS011;9121;50.926;5.340;2024-03-08T10:23:40;30.43;;;15.57;;
17991;SDS011;9121;50.926;5.340;2024-03-08T10:26:09;29.73;;;15.53;;
17991;SDS011;9121;50.926;5.340;2024-03-08T10:28:41;34.97;;;14.97;;
17991;SDS011;9121;50.926;5.340;2024-03-08T10:31:09;33.17;;;15.07;;
17991;SDS011;9121;50.926;5.340;2024-03-08T10:33:37;30.83;;;14.53;;
17991;SDS011;9121;50.926;5.340;2024-03-08T10:36:06;31.93;;;15.10;;
17991;SDS011;9121;50.926;5.340;2024-03-08T10:38:35;37.47;;;15.27;;
17991;SDS011;9121;50.926;5.340;2024-03-08T10:41:04;31.33;;;15.87;;
17991;SDS011;9121;50.926;5.340;2024-03-08T10:43:42;29.20;;;15.20;;
17991;SDS011;9121;50.926;5.340;2024-03-08T10:46:37;34.90;;;16.60;;
17991;SDS011;9121;50.926;5.340;2024-03-08T10:49:16;33.27;;;15.87;;
17991;SDS011;9121;50.926;5.340;2024-03-08T10:51:44;28.67;;;15.87;;
17991;SDS011;9121;50.926;5.340;2024-03-08T10:54:12;28.13;;;13.87;;
17991;SDS011;9121;50.926;5.340;2024-03-08T10:56:42;32.27;;;15.23;;
17991;SDS011;9121;50.926;5.340;2024-03-08T10:59:11;28.47;;;14.90;;
17991;SDS011;9121;50.926;5.340;2024-03-08T11:01:39;32.87;;;13.37;;
17991;SDS011;9121;50.926;5.340;2024-03-08T11:04:06;31.70;;;15.87;;
17991;SDS011;9121;50.926;5.340;2024-03-08T11:06:41;29.53;;;14.87;;
17991;SDS011;9121;50.926;5.340;2024-03-08T11:09:11;32.67;;;15.57;;
17991;SDS011;9121;50.926;5.340;2024-03-08T11:14:53;35.10;;;16.33;;
17991;SDS011;9121;50.926;5.340;2024-03-08T11:17:20;28.77;;;15.07;;
17991;SDS011;9121;50.926;5.340;2024-03-08T11:19:52;33.67;;;14.93;;
17991;SDS011;9121;50.926;5.340;2024-03-08T11:22:22;29.83;;;15.00;;
17991;SDS011;9121;50.926;5.340;2024-03-08T11:24:53;30.20;;;15.47;;
17991;SDS011;9121;50.926;5.340;2024-03-08T11:27:28;31.70;;;14.93;;
17991;SDS011;9121;50.926;5.340;2024-03-08T11:30:01;26.07;;;13.10;;
17991;SDS011;9121;50.926;5.340;2024-03-08T11:32:36;29.80;;;14.80;;
17991;SDS011;9121;50.926;5.340;2024-03-08T11:35:05;29.40;;;15.10;;
17991;SDS011;9121;50.926;5.340;2024-03-08T11:37:34;32.57;;;15.23;;
17991;SDS011;9121;50.926;5.340;2024-03-08T11:40:01;26.90;;;14.70;;
17991;SDS011;9121;50.926;5.340;2024-03-08T11:42:39;28.60;;;15.13;;
17991;SDS011;9121;50.926;5.340;2024-03-08T11:45:11;34.20;;;16.23;;
17991;SDS011;9121;50.926;5.340;2024-03-08T11:47:38;32.60;;;17.17;;
17991;SDS011;9121;50.926;5.340;2024-03-08T11:50:09;30.07;;;15.67;;
17991;SDS011;9121;50.926;5.340;2024-03-08T11:52:37;33.83;;;15.70;;
17991;SDS011;9121;50.926;5.340;2024-03-08T11:55:05;25.70;;;13.80;;
17991;SDS011;9121;50.926;5.340;2024-03-08T11:57:33;26.47;;;15.50;;
17991;SDS011;9121;50.926;5.340;2024-03-08T12:00:00;27.77;;;15.13;;
17991;SDS011;9121;50.926;5.340;2024-03-08T12:02:33;28.77;;;15.40;;
17991;SDS011;9121;50.926;5.340;2024-03-08T12:05:03;29.40;;;15.50;;
17991;SDS011;9121;50.926;5.340;2024-03-08T12:07:34;29.50;;;14.57;;
17991;SDS011;9121;50.926;5.340;2024-03-08T12:10:17;28.23;;;15.30;;
17991;SDS011;9121;50.926;5.340;2024-03-08T12:12:46;29.33;;;15.20;;
17991;SDS011;9121;50.926;5.340;2024-03-08T12:15:16;36.27;;;14.93;;
17991;SDS011;9121;50.926;5.340;2024-03-08T12:17:47;28.13;;;15.15;;
17991;SDS011;9121;50.926;5.340;2024-03-08T12:20:16;32.05;;;14.77;;
17991;SDS011;9121;50.926;5.340;2024-03-08T12:22:44;33.97;;;14.60;;
17991;SDS011;9121;50.926;5.340;2024-03-08T12:25:11;29.90;;;15.07;;
17991;SDS011;9121;50.926;5.340;2024-03-08T12:27:39;34.28;;;15.50;;
17991;SDS011;9121;50.926;5.340;2024-03-08T12:30:19;26.65;;;14.90;;
17991;SDS011;9121;50.926;5.340;2024-03-08T12:32:55;29.52;;;15.50;;
17991;SDS011;9121;50.926;5.340;2024-03-08T12:35:24;29.45;;;15.70;;
17991;SDS011;9121;50.926;5.340;2024-03-08T12:37:52;25.00;;;14.15;;
17991;SDS011;9121;50.926;5.340;2024-03-08T12:40:25;25.80;;;14.48;;
17991;SDS011;9121;50.926;5.340;2024-03-08T12:42:53;26.80;;;15.25;;
17991;SDS011;9121;50.926;5.340;2024-03-08T12:45:21;26.77;;;13.93;;
17991;SDS011;9121;50.926;5.340;2024-03-08T12:47:49;26.75;;;13.90;;
17991;SDS011;9121;50.926;5.340;2024-03-08T12:50:19;25.55;;;13.73;;
17991;SDS011;9121;50.926;5.340;2024-03-08T12:52:46;26.05;;;14.18;;
17991;SDS011;9121;50.926;5.340;2024-03-08T12:55:14;23.90;;;13.57;;
17991;SDS011;9121;50.926;5.340;2024-03-08T12:57:41;24.00;;;13.02;;
17991;SDS011;9121;50.926;5.340;2024-03-08T13:00:09;24.08;;;13.60;;
17991;SDS011;9121;50.926;5.340;2024-03-08T13:02:44;26.48;;;14.70;;
17991;SDS011;9121;50.926;5.340;2024-03-08T13:05:11;24.75;;;13.35;;
17991;SDS011;9121;50.926;5.340;2024-03-08T13:07:40;23.60;;;13.18;;
17991;SDS011;9121;50.926;5.340;2024-03-08T13:10:11;21.27;;;12.68;;
17991;SDS011;9121;50.926;5.340;2024-03-08T13:12:39;23.88;;;12.57;;
17991;SDS011;9121;50.926;5.340;2024-03-08T13:15:07;23.70;;;13.70;;
17991;SDS011;9121;50.926;5.340;2024-03-08T13:17:36;25.13;;;14.50;;
17991;SDS011;9121;50.926;5.340;2024-03-08T13:20:06;28.27;;;13.35;;
17991;SDS011;9121;50.926;5.340;2024-03-08T13:22:34;23.77;;;12.88;;
17991;SDS011;9121;50.926;5.340;2024-03-08T13:25:03;27.58;;;13.32;;
17991;SDS011;9121;50.926;5.340;2024-03-08T13:27:31;23.48;;;14.13;;
17991;SDS011;9121;50.926;5.340;2024-03-08T13:29:58;20.38;;;13.32;;
17991;SDS011;9121;50.926;5.340;2024-03-08T13:32:26;23.00;;;13.35;;
17991;SDS011;9121;50.926;5.340;2024-03-08T13:34:53;26.48;;;13.70;;
17991;SDS011;9121;50.926;5.340;2024-03-08T13:37:20;24.92;;;11.85;;
17991;SDS011;9121;50.926;5.340;2024-03-08T13:39:47;23.33;;;12.75;;
17991;SDS011;9121;50.926;5.340;2024-03-08T13:42:16;20.92;;;12.45;;
17991;SDS011;9121;50.926;5.340;2024-03-08T13:44:44;27.63;;;14.75;;
17991;SDS011;9121;50.926;5.340;2024-03-08T13:47:12;23.77;;;13.73;;
17991;SDS011;9121;50.926;5.340;2024-03-08T13:49:39;28.08;;;13.68;;
17991;SDS011;9121;50.926;5.340;2024-03-08T13:52:08;25.77;;;14.10;;
17991;SDS011;9121;50.926;5.340;2024-03-08T13:54:35;25.17;;;13.77;;
17991;SDS011;9121;50.926;5.340;2024-03-08T13:57:04;23.63;;;13.15;;
17991;SDS011;9121;50.926;5.340;2024-03-08T13:59:33;26.10;;;12.77;;
17991;SDS011;9121;50.926;5.340;2024-03-08T14:02:02;23.38;;;14.60;;
17991;SDS011;9121;50.926;5.340;2024-03-08T14:04:29;30.02;;;14.43;;
17991;SDS011;9121;50.926;5.340;2024-03-08T14:06:57;24.40;;;13.77;;
17991;SDS011;9121;50.926;5.340;2024-03-08T14:09:28;23.08;;;13.77;;
17991;SDS011;9121;50.926;5.340;2024-03-08T14:11:56;25.50;;;13.63;;
17991;SDS011;9121;50.926;5.340;2024-03-08T14:14:23;24.10;;;13.25;;
17991;SDS011;9121;50.926;5.340;2024-03-08T14:16:52;23.40;;;13.57;;
17991;SDS011;9121;50.926;5.340;2024-03-08T14:19:20;25.02;;;14.00;;
17991;SDS011;9121;50.926;5.340;2024-03-08T14:21:47;21.35;;;12.32;;
17991;SDS011;9121;50.926;5.340;2024-03-08T14:24:16;25.02;;;12.52;;
17991;SDS011;9121;50.926;5.340;2024-03-08T14:26:43;28.75;;;17.63;;
17991;SDS011;9121;50.926;5.340;2024-03-08T14:29:11;27.40;;;14.10;;
17991;SDS011;9121;50.926;5.340;2024-03-08T14:31:38;22.63;;;13.52;;
17991;SDS011;9121;50.926;5.340;2024-03-08T14:34:08;22.27;;;12.70;;
17991;SDS011;9121;50.926;5.340;2024-03-08T14:36:35;25.35;;;12.85;;
17991;SDS011;9121;50.926;5.340;2024-03-08T14:39:03;25.73;;;12.60;;
17991;SDS011;9121;50.926;5.340;2024-03-08T14:41:30;27.45;;;13.77;;
17991;SDS011;9121;50.926;5.340;2024-03-08T14:43:57;23.80;;;11.10;;